Honor, MI

2:39 PM EDT on August 03, 2015 (GMT -0400)
PlatteLakeLodge.com | | Change Station
CLOSE
Current Station
Personal Weather Station
Location: Beulah, MI
Elevation: 607 ft
Nearby Weather Stations

Elev 607 ft 44.68 °N, 86.07 °W | Updated 5 seconds ago

Partly Cloudy
Partly Cloudy
70.3 °F
Feels Like 76 °F
N
4.0
Wind Variable Wind from NW
Gusts 9.0 mph

Today
High -- | Low -- °F
--% Chance of Precip.
Yesterday
High -- | Low -- °F
Precip. -- in
6:32 AM 9:07 PM
Waning Gibbous, 85% visible
Pressure 29.80 in
Visibility 10.0 miles
Clouds Clear
Heat Index 76 °F
Dew Point 54 °F
Humidity 57%
Rainfall 0.00 in
Snow Depth Not available.
UV 10 out of 12
Pollen 5.50 out of 12
Air Quality Not available.
Flu Activity Not available.
METAR KFKS 031833Z AUTO 24007KT 10SM CLR 22/14 A2980 RMK AO2 T02190141

More Conditions Fewer Conditions

Pressure 29.80 in
Visibility 10.0 miles
Clouds Clear
Heat Index 76 °F
Dew Point 54 °F
Humidity 57%
Rainfall 0.00 in
Snow Depth Not available.
UV 10 out of 12
Pollen 5.50 out of 12
Air Quality Not available.
Flu Activity Not available.
METAR KFKS 031833Z AUTO 24007KT 10SM CLR 22/14 A2980 RMK AO2 T02190141

More Conditions Fewer Conditions

Nowcast | as of 1:00 PM EDT on August 3, 2015

At 2 PM...partly cloudy. Slight chance of showers and isolated thunderstorms. Temperature 71. West winds 12 mph. At 4 PM...partly cloudy. Slight chance of showers and isolated thunderstorms. Temperature 72. Southwest winds 13 mph. At 6 PM...partly cloudy. Slight chance of showers and isolated thunderstorms. Temperature 72. Southwest winds 10 mph. At 8 PM...mostly cloudy. Slight chance of showers. Temperature 69. West winds 7 mph.

×

10-Day Weather Forecast

×

Almanac

Astronomy

Aug. 03, 2015 Rise Set
Actual Time
Civil Twilight
Nautical Twilight
Astronomical Twilight
Moon
Length of Visible Light
Length of Day
Tomorrow will be .
, % of the Moon is Illuminated

Today's Extremes

State Highs State Lows

Community

WunderPhotos

Upload Photos

1,843,703 photos uploaded!

WunderBlogs® & News

Nearby

Air Quality

  Air Quality AQ Index Pollutant
Not available.

Snow Depth

Station Depth Elevation

Earthquake Activity

City Distance Mag. Time & Date
Minimum magnitude displayed is 2.5.

Coastal Water Temperatures

Place Temperature

Stations

Nearby Weather Stations

Station Location Temp. Windchill Dew Point Humidity Wind Precip. Elev Updated Type